Time;durP1;ratioP1;P1;durP2;ratioP2;P2;SDS_P1;SDS_P2;PMS_P1;PMS_P2;Temp;Humidity;BMP_temperature;BMP_pressure;BME280_temperature;BME280_humidity;BME280_pressure;Samples;Min_cycle;Max_cycle;Signal;HPM_P1;HPM_P2
2022/10/17 00:01:03;;;;;;;27.60;24.70;;;;;;;9.58;99.84;98902.58;105466;1324;22531;-93
2022/10/17 00:03:35;;;;;;;28.80;24.20;;;;;;;9.51;100.00;98902.79;105530;1313;22275;-92
2022/10/17 00:06:08;;;;;;;29.80;23.80;;;;;;;9.44;100.00;98906.27;105128;1324;22140;-94
2022/10/17 00:08:37;;;;;;;28.50;25.70;;;;;;;9.41;100.00;98904.17;105801;1308;22954;-92
2022/10/17 00:11:15;;;;;;;26.60;23.80;;;;;;;9.42;100.00;98908.64;105577;1323;22096;-89
2022/10/17 00:13:44;;;;;;;27.00;23.80;;;;;;;9.45;100.00;98905.30;105836;1316;22152;-94
2022/10/17 00:16:13;;;;;;;27.70;24.90;;;;;;;9.48;100.00;98901.92;105455;1324;22207;-93
2022/10/17 00:18:41;;;;;;;27.30;24.50;;;;;;;9.51;100.00;98904.61;105534;1324;22603;-89
2022/10/17 00:21:17;;;;;;;26.00;23.40;;;;;;;9.48;100.00;98908.27;105584;1324;22247;-86
2022/10/17 00:23:45;;;;;;;27.70;24.40;;;;;;;9.50;100.00;98906.06;105969;1308;22271;-86
2022/10/17 00:26:15;;;;;;;27.30;24.80;;;;;;;9.48;100.00;98903.16;105542;1314;22194;-91
2022/10/17 00:28:47;;;;;;;26.50;24.00;;;;;;;9.44;99.95;98905.63;105251;1324;22244;-95
2022/10/17 00:31:18;;;;;;;28.50;25.60;;;;;;;9.38;100.00;98906.89;105145;1324;22195;-93
2022/10/17 00:33:46;;;;;;;27.80;25.20;;;;;;;9.40;100.00;98906.26;105089;1324;22110;-92
2022/10/17 00:36:21;;;;;;;26.80;24.10;;;;;;;9.49;100.00;98904.83;105154;1324;22256;-89
2022/10/17 00:38:52;;;;;;;26.60;23.00;;;;;;;9.58;100.00;98909.14;105810;1316;22182;-91
2022/10/17 00:41:23;;;;;;;24.90;22.50;;;;;;;9.58;99.97;98911.45;105661;1309;22903;-90
2022/10/17 00:44:00;;;;;;;27.60;23.10;;;;;;;9.54;100.00;98909.84;105952;1298;22102;-90
2022/10/17 00:46:36;;;;;;;24.40;21.60;;;;;;;9.52;100.00;98914.48;105585;1315;22110;-93
2022/10/17 00:49:09;;;;;;;25.70;22.20;;;;;;;9.44;100.00;98921.71;105217;1324;22339;-86
2022/10/17 00:51:44;;;;;;;23.80;21.50;;;;;;;9.36;100.00;98920.61;105507;1324;22871;-92
2022/10/17 00:54:14;;;;;;;22.50;20.40;;;;;;;9.37;100.00;98919.86;105831;1301;22829;-92
2022/10/17 00:56:45;;;;;;;23.10;20.90;;;;;;;9.45;100.00;98915.63;105497;1317;22113;-92
2022/10/17 00:59:15;;;;;;;22.40;20.40;;;;;;;9.52;100.00;98916.52;105764;1301;22090;-93
2022/10/17 01:01:50;;;;;;;23.50;21.20;;;;;;;9.50;99.92;98912.52;105515;1324;22131;-93
2022/10/17 01:04:18;;;;;;;23.30;21.20;;;;;;;9.42;100.00;98907.18;105572;1315;22196;-93
2022/10/17 01:06:46;;;;;;;23.90;21.60;;;;;;;9.35;100.00;98907.70;105584;1311;22165;-87
2022/10/17 01:09:14;;;;;;;23.50;21.30;;;;;;;9.26;100.00;98910.97;105839;1306;22187;-89
2022/10/17 01:11:42;;;;;;;23.10;20.90;;;;;;;9.22;100.00;98915.41;105586;1322;22107;-94
2022/10/17 01:14:19;;;;;;;23.30;21.10;;;;;;;9.23;100.00;98915.74;105548;1317;22958;-87
2022/10/17 01:16:59;;;;;;;23.30;20.30;;;;;;;9.20;100.00;98909.92;105942;1298;22592;-92
2022/10/17 01:19:49;;;;;;;22.10;20.00;;;;;;;9.18;100.00;98907.50;105569;1321;22102;-93
2022/10/17 01:22:39;;;;;;;21.50;19.20;;;;;;;9.15;100.00;98906.84;105608;1321;22101;-91
2022/10/17 01:25:19;;;;;;;22.60;20.30;;;;;;;9.08;100.00;98906.55;105243;1324;23087;-87
2022/10/17 01:28:06;;;;;;;21.80;19.60;;;;;;;9.02;100.00;98905.67;105305;1324;21958;-86
2022/10/17 01:30:55;;;;;;;21.10;19.10;;;;;;;8.99;100.00;98905.89;105506;1318;22054;-87
2022/10/17 01:33:40;;;;;;;19.80;17.90;;;;;;;8.98;100.00;98903.56;105529;1324;22197;-83
2022/10/17 01:36:18;;;;;;;20.40;18.30;;;;;;;9.00;100.00;98904.84;105249;1327;22680;-92
2022/10/17 01:38:52;;;;;;;21.60;18.90;;;;;;;9.01;100.00;98910.08;105178;1325;21875;-93
2022/10/17 01:41:26;;;;;;;23.10;17.80;;;;;;;8.99;100.00;98915.83;105507;1317;22286;-83
2022/10/17 01:44:17;;;;;;;21.10;19.10;;;;;;;9.02;100.00;98923.42;105467;1316;22213;-85
2022/10/17 01:46:58;;;;;;;19.00;17.10;;;;;;;9.09;100.00;98922.11;106088;1308;22210;-85
2022/10/17 01:49:28;;;;;;;19.60;17.60;;;;;;;9.13;100.00;98922.91;105353;1324;22176;-87
2022/10/17 01:52:02;;;;;;;19.10;17.30;;;;;;;9.14;100.00;98920.06;105195;1324;22068;-92
2022/10/17 01:54:36;;;;;;;19.50;17.60;;;;;;;9.20;100.00;98918.42;105269;1326;22225;-86
2022/10/17 01:57:10;;;;;;;18.80;17.10;;;;;;;9.24;100.00;98920.91;105764;1300;22830;-86
2022/10/17 01:59:41;;;;;;;17.30;15.50;;;;;;;9.29;100.00;98916.79;105487;1324;22190;-92
2022/10/17 02:02:13;;;;;;;17.50;15.80;;;;;;;9.32;100.00;98913.56;105533;1324;21833;-89
2022/10/17 02:04:41;;;;;;;17.10;15.40;;;;;;;9.28;100.00;98912.90;105526;1324;22232;-91
2022/10/17 02:07:11;;;;;;;20.30;15.70;;;;;;;9.19;100.00;98919.98;105518;1324;22193;-87
2022/10/17 02:09:39;;;;;;;18.30;16.50;;;;;;;9.16;100.00;98917.02;105976;1306;22181;-88
2022/10/17 02:12:28;;;;;;;18.80;16.50;;;;;;;9.16;100.00;98915.94;105615;1290;22222;31
2022/10/17 02:15:08;;;;;;;18.00;16.20;;;;;;;9.17;100.00;98915.30;105626;1318;23055;-82
2022/10/17 02:18:07;;;;;;;17.70;16.10;;;;;;;9.22;100.00;98917.08;105724;1295;23072;-88
2022/10/17 02:21:04;;;;;;;18.70;16.10;;;;;;;9.24;100.00;98913.60;105348;1324;21936;-85
2022/10/17 02:23:40;;;;;;;18.10;16.00;;;;;;;9.23;100.00;98915.47;105767;1286;22209;-86
2022/10/17 02:26:16;;;;;;;16.40;14.70;;;;;;;9.23;100.00;98915.10;105774;1291;22181;-81
2022/10/17 02:29:13;;;;;;;17.50;14.50;;;;;;;9.21;100.00;98919.40;105596;1302;22934;-89
2022/10/17 02:31:48;;;;;;;19.70;14.80;;;;;;;9.22;100.00;98919.56;106026;1314;22208;-86
2022/10/17 02:34:23;;;;;;;15.90;14.30;;;;;;;9.21;100.00;98920.36;105592;1318;22220;-82
2022/10/17 02:36:57;;;;;;;16.40;14.60;;;;;;;9.17;100.00;98920.83;105683;1318;22228;-85
2022/10/17 02:39:27;;;;;;;15.10;13.50;;;;;;;9.15;100.00;98918.40;105790;1314;22197;-89
2022/10/17 02:41:59;;;;;;;15.00;13.60;;;;;;;9.13;100.00;98920.45;105991;1286;22036;-89
2022/10/17 02:44:29;;;;;;;15.40;14.00;;;;;;;9.13;100.00;98919.80;105548;1321;22075;-85
2022/10/17 02:47:11;;;;;;;18.80;15.70;;;;;;;9.14;100.00;98921.63;105760;1290;22531;-83
2022/10/17 02:49:44;;;;;;;17.80;16.00;;;;;;;9.04;100.00;98916.44;105357;1298;22137;-82
2022/10/17 02:52:36;;;;;;;17.30;15.30;;;;;;;9.03;100.00;98924.87;105603;1315;22054;-82
2022/10/17 02:55:12;;;;;;;15.50;14.10;;;;;;;9.01;100.00;98923.79;106188;1314;22340;-86
2022/10/17 02:57:48;;;;;;;25.60;14.60;;;;;;;9.08;100.00;98925.16;105824;1278;22920;-79
2022/10/17 03:00:25;;;;;;;18.20;14.60;;;;;;;9.14;100.00;98924.46;106022;1285;21928;31
2022/10/17 03:03:00;;;;;;;14.40;12.90;;;;;;;9.15;100.00;98920.34;106483;1293;22287;-94
2022/10/17 03:05:33;;;;;;;19.10;14.10;;;;;;;9.13;100.00;98919.48;105816;1286;22441;-86
2022/10/17 03:08:06;;;;;;;18.30;14.50;;;;;;;9.12;100.00;98928.45;106585;1286;22246;-79
2022/10/17 03:10:34;;;;;;;15.40;14.10;;;;;;;9.15;100.00;98933.13;106338;1289;23078;-87
2022/10/17 03:13:02;;;;;;;15.50;13.80;;;;;;;9.19;100.00;98933.10;105943;1302;22053;-90
2022/10/17 03:15:37;;;;;;;16.10;13.70;;;;;;;9.23;100.00;98934.18;106042;1289;21904;-83
2022/10/17 03:18:11;;;;;;;17.60;15.60;;;;;;;9.24;100.00;98937.42;106543;1280;22187;-91
2022/10/17 03:20:38;;;;;;;18.50;16.50;;;;;;;9.18;100.00;98940.90;106063;1295;22218;-85
2022/10/17 03:23:06;;;;;;;18.20;16.60;;;;;;;9.17;100.00;98939.55;105825;1293;22749;-80
2022/10/17 03:25:34;;;;;;;23.20;18.40;;;;;;;9.12;100.00;98943.24;106584;1292;22154;-82
2022/10/17 03:28:10;;;;;;;26.50;19.40;;;;;;;9.10;100.00;98945.60;106026;1293;22198;31
2022/10/17 03:30:38;;;;;;;27.20;24.30;;;;;;;9.05;100.00;98946.82;105583;1287;22254;-85
2022/10/17 03:33:11;;;;;;;33.30;27.50;;;;;;;9.03;100.00;98945.79;105915;1298;22055;31
2022/10/17 03:35:45;;;;;;;24.10;21.70;;;;;;;9.05;100.00;98951.28;105924;1284;22234;31
2022/10/17 03:38:19;;;;;;;40.70;30.10;;;;;;;9.01;100.00;98952.61;106061;1286;22447;-82
2022/10/17 03:40:54;;;;;;;34.60;31.00;;;;;;;8.92;100.00;98957.63;105511;1303;22084;-89
2022/10/17 03:43:23;;;;;;;31.90;28.30;;;;;;;8.92;100.00;98954.93;105371;1292;22928;-86
2022/10/17 03:45:57;;;;;;;38.40;31.40;;;;;;;8.97;100.00;98951.02;106211;1287;22407;31
2022/10/17 03:48:32;;;;;;;40.80;34.30;;;;;;;9.02;100.00;98953.67;105679;1290;23328;-92
2022/10/17 03:51:03;;;;;;;45.80;39.60;;;;;;;8.98;100.00;98960.39;105963;1305;22858;-85
2022/10/17 03:53:37;;;;;;;50.40;40.60;;;;;;;8.92;100.00;98967.03;106099;1292;22558;31
2022/10/17 03:56:23;;;;;;;58.20;42.40;;;;;;;8.88;100.00;98967.70;106152;1285;22356;-93
2022/10/17 03:59:02;;;;;;;54.80;40.90;;;;;;;8.87;100.00;98966.30;105976;1292;22256;-85
2022/10/17 04:01:37;;;;;;;43.10;36.50;;;;;;;8.86;100.00;98966.41;106778;1293;22561;31
2022/10/17 04:04:10;;;;;;;51.10;42.70;;;;;;;8.82;100.00;98969.92;106559;1286;22323;31
2022/10/17 04:06:44;;;;;;;57.50;50.20;;;;;;;8.72;100.00;98978.59;106453;1295;22396;31
2022/10/17 04:09:17;;;;;;;42.50;37.50;;;;;;;8.68;100.00;98979.20;106709;1295;22516;31
2022/10/17 04:14:58;;;;;;;46.80;41.60;;;;;;;8.66;100.00;98983.71;107132;1285;22197;-79
2022/10/17 04:17:29;;;;;;;36.10;31.30;;;;;;;8.67;100.00;98980.92;106161;1318;22079;-79
2022/10/17 04:20:10;;;;;;;40.40;35.20;;;;;;;8.66;100.00;98980.75;106301;1285;22245;31
2022/10/17 04:22:43;;;;;;;40.50;36.10;;;;;;;8.59;100.00;98976.84;106199;1279;23806;31
2022/10/17 04:25:19;;;;;;;33.10;29.50;;;;;;;8.55;100.00;98980.84;101381;1295;22385;-77
2022/10/17 04:27:54;;;;;;;;;;;;;;;8.55;100.00;98988.89;107013;1283;22490;31
2022/10/17 04:30:27;;;;;;;31.60;27.50;;;;;;;8.55;100.00;98992.70;99023;1277;22344;-83
2022/10/17 04:33:03;;;;;;;25.20;22.70;;;;;;;8.56;100.00;98990.80;105922;1296;22390;31
2022/10/17 04:35:38;;;;;;;23.20;20.80;;;;;;;8.63;100.00;98991.70;107006;1289;22321;31
2022/10/17 04:38:12;;;;;;;21.70;19.60;;;;;;;8.71;100.00;98992.13;106139;1298;21770;31
2022/10/17 04:40:48;;;;;;;21.80;18.70;;;;;;;8.79;100.00;98995.61;106172;1294;23143;31
2022/10/17 04:43:21;;;;;;;18.80;16.90;;;;;;;8.89;100.00;98991.31;105643;1294;22292;31
2022/10/17 04:45:49;;;;;;;19.90;18.00;;;;;;;8.94;100.00;98984.89;106429;1295;24538;-83
2022/10/17 04:48:22;;;;;;;21.00;16.30;;;;;;;8.97;100.00;98984.77;106629;1286;22123;-82
2022/10/17 04:51:10;;;;;;;19.40;17.60;;;;;;;8.97;100.00;98979.21;106403;1286;23984;31
2022/10/17 04:53:52;;;;;;;23.90;17.90;;;;;;;8.89;100.00;98980.50;105647;1286;22305;-89
2022/10/17 04:56:26;;;;;;;20.20;18.00;;;;;;;8.84;100.00;98985.27;106249;1292;21761;-84
2022/10/17 04:59:02;;;;;;;22.40;18.70;;;;;;;8.75;100.00;98984.95;102878;1287;22308;31
2022/10/17 05:01:36;;;;;;;19.60;17.60;;;;;;;8.73;100.00;98984.08;104476;1295;22348;31
2022/10/17 05:04:10;;;;;;;19.10;17.00;;;;;;;8.70;100.00;98984.91;100486;1295;22314;-90
2022/10/17 05:06:45;;;;;;;17.30;15.60;;;;;;;8.71;100.00;98985.89;106756;1286;22309;31
2022/10/17 05:09:40;;;;;;;17.60;15.90;;;;;;;8.72;100.00;98983.37;105504;1289;22382;-81
2022/10/17 05:12:08;;;;;;;25.00;20.90;;;;;;;8.74;100.00;98980.27;105755;1295;21917;-80
2022/10/17 05:14:38;;;;;;;25.20;22.50;;;;;;;8.72;100.00;98980.09;106296;1295;22072;-79
2022/10/17 05:17:06;;;;;;;30.10;27.40;;;;;;;8.70;100.00;98979.39;106510;1318;22343;-79
2022/10/17 05:19:34;;;;;;;24.10;21.80;;;;;;;8.65;100.00;98981.70;106262;1315;21951;-79
2022/10/17 05:22:02;;;;;;;22.40;20.40;;;;;;;8.59;100.00;98982.91;106733;1314;22046;-79
2022/10/17 05:24:30;;;;;;;20.00;18.20;;;;;;;8.59;100.00;98984.27;106410;1322;21866;-81
2022/10/17 05:27:05;;;;;;;20.90;18.80;;;;;;;8.64;100.00;98990.09;105970;1293;24164;31
2022/10/17 05:29:34;;;;;;;19.50;17.60;;;;;;;8.69;100.00;98990.39;106588;1316;22083;-79
2022/10/17 05:32:19;;;;;;;19.60;17.80;;;;;;;8.74;100.00;98999.02;106041;1287;21956;-79
2022/10/17 05:34:53;;;;;;;17.90;16.40;;;;;;;8.78;100.00;99001.95;106812;1295;22394;31
2022/10/17 05:37:29;;;;;;;18.90;17.10;;;;;;;8.87;100.00;99009.20;104773;1289;22344;-79
2022/10/17 05:40:02;;;;;;;19.60;17.90;;;;;;;8.96;100.00;99018.55;97371;1292;22212;-79
2022/10/17 05:42:38;;;;;;;20.10;18.30;;;;;;;8.94;100.00;99010.16;105023;1287;23194;31
2022/10/17 05:45:16;;;;;;;20.90;18.10;;;;;;;9.06;100.00;99016.52;107572;1286;22748;31
2022/10/17 05:47:45;;;;;;;19.20;17.30;;;;;;;9.12;100.00;99017.78;106153;1320;21876;-79
2022/10/17 05:50:23;;;;;;;19.10;17.30;;;;;;;9.14;100.00;99026.11;106915;1294;22569;31
2022/10/17 05:53:11;;;;;;;19.00;17.10;;;;;;;9.22;100.00;99030.89;106839;1296;22315;31
2022/10/17 05:56:00;;;;;;;19.00;17.20;;;;;;;9.32;100.00;99032.13;96840;1290;22084;-79
2022/10/17 05:58:39;;;;;;;19.40;17.30;;;;;;;9.41;100.00;99036.25;106758;1297;22607;31
2022/10/17 06:01:53;;;;;;;20.60;18.40;;;;;;;9.55;100.00;99037.55;106456;1295;22364;31
2022/10/17 06:04:27;;;;;;;20.60;18.60;;;;;;;9.69;100.00;99036.89;105837;1288;22225;-82
2022/10/17 06:07:01;;;;;;;23.30;18.80;;;;;;;9.82;100.00;99042.09;102423;1285;22394;31
2022/10/17 06:09:35;;;;;;;23.10;18.50;;;;;;;9.91;100.00;99045.72;106535;1295;22231;31
2022/10/17 06:12:08;;;;;;;21.60;18.30;;;;;;;10.01;100.00;99048.33;105836;1295;22222;-81
2022/10/17 06:14:42;;;;;;;25.40;18.00;;;;;;;10.13;100.00;99046.99;100297;1289;22150;31
2022/10/17 06:17:17;;;;;;;24.50;21.90;;;;;;;10.26;100.00;99051.65;106716;1287;22520;-82
2022/10/17 06:19:50;;;;;;;23.30;20.10;;;;;;;10.37;100.00;99053.25;99101;1286;22268;-79
2022/10/17 06:22:18;;;;;;;26.70;21.40;;;;;;;10.48;100.00;99061.60;106506;1298;22384;-86
2022/10/17 06:24:46;;;;;;;28.00;25.10;;;;;;;10.54;100.00;99060.05;106201;1292;21894;-88
2022/10/17 06:27:20;;;;;;;35.30;31.50;;;;;;;10.61;100.00;99057.11;105953;1285;22929;-87
2022/10/17 06:29:53;;;;;;;25.40;22.50;;;;;;;10.73;100.00;99058.41;106086;1289;22993;-89
2022/10/17 06:32:21;;;;;;;62.00;39.90;;;;;;;10.85;100.00;99057.04;105359;1330;22144;-90
2022/10/17 06:34:50;;;;;;;34.00;30.30;;;;;;;10.95;100.00;99062.37;105384;1323;22260;-90
2022/10/17 06:37:18;;;;;;;55.80;32.30;;;;;;;11.11;100.00;99065.14;105423;1323;22092;-92
2022/10/17 06:39:46;;;;;;;54.00;39.70;;;;;;;11.25;100.00;99063.97;105328;1317;22137;-92
2022/10/17 06:42:20;;;;;;;39.70;32.00;;;;;;;11.40;100.00;99064.68;105337;1324;22030;-92
2022/10/17 06:45:01;;;;;;;26.40;22.70;;;;;;;11.63;100.00;99068.59;105463;1325;22210;-90
2022/10/17 06:48:01;;;;;;;21.50;19.50;;;;;;;11.91;100.00;99066.48;105160;1327;22173;-91
2022/10/17 06:50:52;;;;;;;21.30;19.30;;;;;;;12.19;100.00;99070.37;105469;1320;22168;-88
2022/10/17 06:53:23;;;;;;;20.00;18.00;;;;;;;12.41;100.00;99076.59;105141;1324;22387;-91
2022/10/17 06:56:21;;;;;;;20.90;18.80;;;;;;;12.65;100.00;99074.79;105809;1316;22084;-92
2022/10/17 06:59:08;;;;;;;23.10;20.70;;;;;;;12.86;100.00;99079.27;105887;1317;22073;-92
2022/10/17 07:01:38;;;;;;;29.90;20.70;;;;;;;13.05;100.00;99077.45;105258;1324;22294;-91
2022/10/17 07:04:12;;;;;;;;;;;;;;;13.25;100.00;99079.04;105491;1317;22308;-90
2022/10/17 07:06:40;;;;;;;34.30;28.50;;;;;;;13.42;100.00;99075.57;105354;1324;22901;-92
2022/10/17 07:09:15;;;;;;;35.20;30.10;;;;;;;13.60;100.00;99081.80;105840;1315;22207;-90
2022/10/17 07:11:44;;;;;;;29.60;25.30;;;;;;;13.76;100.00;99087.61;105287;1324;22197;-90
2022/10/17 07:14:16;;;;;;;32.50;28.20;;;;;;;13.90;100.00;99092.14;105698;1302;22224;-92
2022/10/17 07:16:44;;;;;;;23.50;20.70;;;;;;;14.04;100.00;99095.43;105704;1316;22240;-89
2022/10/17 07:19:20;;;;;;;24.60;20.50;;;;;;;14.18;100.00;99095.99;105268;1317;22239;-92
2022/10/17 07:21:49;;;;;;;20.40;17.90;;;;;;;14.30;100.00;99095.02;105156;1324;22172;-90
2022/10/17 07:24:17;;;;;;;18.50;16.60;;;;;;;14.43;100.00;99097.90;105112;1326;22183;-93
2022/10/17 07:26:49;;;;;;;22.30;17.60;;;;;;;14.55;100.00;99098.35;105628;1305;22957;-89
2022/10/17 07:29:17;;;;;;;18.90;16.90;;;;;;;14.66;100.00;99096.98;105405;1318;22903;-90
2022/10/17 07:32:07;;;;;;;22.50;17.80;;;;;;;14.76;100.00;99093.17;105719;1309;22094;-91
2022/10/17 07:34:35;;;;;;;20.10;17.00;;;;;;;14.86;100.00;99097.75;105424;1324;22765;-92
2022/10/17 07:37:05;;;;;;;22.90;16.40;;;;;;;14.95;100.00;99097.63;105212;1327;22657;-92
2022/10/17 07:39:34;;;;;;;20.10;16.30;;;;;;;15.06;100.00;99099.35;105290;1319;22179;-91
2022/10/17 07:42:03;;;;;;;18.90;16.40;;;;;;;15.17;99.99;99101.64;105565;1301;22206;-91
2022/10/17 07:44:31;;;;;;;18.20;16.50;;;;;;;15.25;99.99;99099.71;105587;1317;22103;-88
2022/10/17 07:46:59;;;;;;;35.10;31.80;;;;;;;15.32;99.89;99102.52;105169;1324;22739;-93
2022/10/17 07:49:28;;;;;;;27.60;24.70;;;;;;;15.39;99.70;99096.79;105639;1317;22066;-93
2022/10/17 07:51:56;;;;;;;22.30;20.10;;;;;;;15.45;99.37;99096.23;105163;1324;22906;-93
2022/10/17 07:54:24;;;;;;;19.50;17.50;;;;;;;15.53;99.17;99099.13;105594;1313;22277;-92
2022/10/17 07:56:52;;;;;;;19.00;14.80;;;;;;;15.60;97.38;99104.05;105792;1306;22189;-90
2022/10/17 07:59:20;;;;;;;16.80;15.10;;;;;;;15.69;97.94;99105.28;105417;1324;22216;-91
2022/10/17 08:01:48;;;;;;;16.40;13.90;;;;;;;15.81;97.78;99102.67;105674;1303;22080;-92
2022/10/17 08:04:16;;;;;;;17.70;15.80;;;;;;;15.91;97.72;99105.72;105671;1317;22161;-93
2022/10/17 08:06:44;;;;;;;15.70;14.10;;;;;;;16.01;96.94;99106.39;105384;1324;22886;-93
2022/10/17 08:09:12;;;;;;;16.00;14.40;;;;;;;16.09;97.04;99110.06;105737;1316;22253;-91
2022/10/17 08:11:42;;;;;;;17.00;14.60;;;;;;;16.18;96.50;99109.59;105744;1298;22994;-92
2022/10/17 08:14:15;;;;;;;17.50;14.40;;;;;;;16.23;95.59;99108.72;105344;1324;22086;-92
2022/10/17 08:16:43;;;;;;;17.20;15.40;;;;;;;16.30;95.24;99112.33;105406;1323;22130;-92
2022/10/17 08:19:11;;;;;;;19.30;15.20;;;;;;;16.38;94.72;99112.58;105794;1302;22195;-94
2022/10/17 08:21:40;;;;;;;17.70;13.30;;;;;;;16.48;94.67;99113.81;105750;1302;22273;-91
2022/10/17 08:24:08;;;;;;;14.80;13.20;;;;;;;16.60;94.40;99110.65;105414;1323;22148;-93
2022/10/17 08:26:38;;;;;;;20.10;13.60;;;;;;;16.70;94.23;99112.84;105660;1308;22101;-91
2022/10/17 08:29:13;;;;;;;15.50;13.90;;;;;;;16.79;93.96;99114.02;105458;1324;22084;-93
2022/10/17 08:31:41;;;;;;;13.90;12.60;;;;;;;16.85;92.09;99112.98;105442;1321;22200;-92
2022/10/17 08:34:14;;;;;;;13.60;12.30;;;;;;;16.87;91.50;99114.37;105073;1324;22204;-92
2022/10/17 08:36:42;;;;;;;15.00;13.50;;;;;;;16.92;91.74;99119.36;105749;1302;22188;-92
2022/10/17 08:39:10;;;;;;;13.40;12.20;;;;;;;17.00;91.47;99117.14;105756;1311;22098;-93
2022/10/17 08:41:48;;;;;;;13.70;12.30;;;;;;;17.10;91.55;99117.77;105421;1323;22271;-92
2022/10/17 08:44:38;;;;;;;15.60;12.50;;;;;;;17.22;91.47;99117.02;105470;1323;22114;-92
2022/10/17 08:47:13;;;;;;;12.80;11.50;;;;;;;17.34;90.76;99120.75;105801;1316;22146;-93
2022/10/17 08:49:51;;;;;;;14.60;13.30;;;;;;;17.44;90.51;99122.82;105508;1323;22758;-91
2022/10/17 08:52:28;;;;;;;16.10;13.90;;;;;;;17.57;90.14;99124.21;105509;1321;22242;-87
2022/10/17 08:54:56;;;;;;;16.00;14.00;;;;;;;17.67;88.90;99123.19;105789;1316;22189;-92
2022/10/17 08:57:24;;;;;;;13.30;12.00;;;;;;;17.78;88.74;99125.39;105825;1308;22181;-91
2022/10/17 08:59:53;;;;;;;13.90;11.70;;;;;;;17.89;88.57;99122.67;105777;1316;22230;-90
2022/10/17 09:02:48;;;;;;;12.80;11.60;;;;;;;17.99;87.41;99126.59;105744;1299;22193;-94
2022/10/17 09:05:48;;;;;;;15.20;12.30;;;;;;;18.11;87.02;99129.46;105457;1312;22094;-90
2022/10/17 09:08:41;;;;;;;13.80;11.20;;;;;;;18.23;86.48;99128.61;105454;1323;22152;-94
2022/10/17 09:11:27;;;;;;;14.40;11.20;;;;;;;18.37;86.76;99126.15;105409;1323;22114;-90
2022/10/17 09:14:14;;;;;;;15.10;11.50;;;;;;;18.51;86.54;99127.73;105810;1299;22217;-92
2022/10/17 09:17:06;;;;;;;12.30;10.90;;;;;;;18.64;86.15;99124.64;105488;1321;22217;-92
2022/10/17 09:19:39;;;;;;;14.60;11.20;;;;;;;18.78;86.06;99124.35;105528;1323;22254;-92
2022/10/17 09:22:16;;;;;;;13.00;11.60;;;;;;;18.91;85.15;99123.98;105559;1323;22203;-94
2022/10/17 09:24:54;;;;;;;15.10;11.50;;;;;;;19.02;84.75;99127.04;105863;1302;22684;-94
2022/10/17 09:27:27;;;;;;;13.30;11.20;;;;;;;19.16;84.53;99123.31;105844;1294;22216;-92
2022/10/17 09:30:19;;;;;;;13.00;11.70;;;;;;;19.26;83.24;99127.41;105405;1324;22124;-95
2022/10/17 09:33:17;;;;;;;12.80;11.60;;;;;;;19.41;83.69;99125.81;105483;1323;22177;-91
2022/10/17 09:36:19;;;;;;;14.00;11.70;;;;;;;19.54;83.19;99125.85;105693;1317;22073;-90
2022/10/17 09:38:56;;;;;;;12.20;10.90;;;;;;;19.66;82.68;99127.59;105497;1324;22205;-92
2022/10/17 09:41:38;;;;;;;11.30;10.20;;;;;;;19.77;82.32;99122.52;105647;1293;22497;-85
2022/10/17 09:44:15;;;;;;;13.50;10.60;;;;;;;19.88;81.01;99120.45;105742;1280;22205;-91
2022/10/17 09:46:55;;;;;;;12.10;10.80;;;;;;;19.93;79.62;99123.31;105611;1323;22056;-87
2022/10/17 09:49:40;;;;;;;13.20;9.90;;;;;;;20.05;79.82;99123.84;105398;1323;22879;-90
2022/10/17 09:52:18;;;;;;;11.10;9.70;;;;;;;20.18;79.32;99124.98;105141;1326;21982;-91
2022/10/17 09:54:53;;;;;;;11.60;10.50;;;;;;;20.35;78.40;99128.96;105611;1314;22086;-92
2022/10/17 09:57:21;;;;;;;10.10;9.20;;;;;;;20.50;78.53;99128.43;105940;1314;22187;-88
2022/10/17 10:00:00;;;;;;;10.00;8.80;;;;;;;20.66;77.63;99130.39;105919;1309;22294;-88
2022/10/17 10:02:32;;;;;;;13.60;9.40;;;;;;;20.81;76.84;99132.25;105919;1314;22247;-88
2022/10/17 10:05:15;;;;;;;12.40;8.70;;;;;;;20.92;75.23;99131.41;105925;1314;22208;-90
2022/10/17 10:07:59;;;;;;;18.60;9.60;;;;;;;21.00;72.01;99133.95;105186;1323;22191;-92
2022/10/17 10:10:28;;;;;;;14.70;8.80;;;;;;;21.06;71.96;99131.49;105906;1314;22067;-91
2022/10/17 10:13:14;;;;;;;13.70;9.10;;;;;;;21.10;68.72;99131.41;105430;1323;22113;-93
2022/10/17 10:15:48;;;;;;;11.40;8.90;;;;;;;21.21;71.54;99127.87;105433;1324;22241;-90
2022/10/17 10:18:25;;;;;;;14.80;8.10;;;;;;;21.32;67.66;99129.11;105570;1315;22929;-89
2022/10/17 10:21:12;;;;;;;11.50;8.40;;;;;;;21.43;67.27;99130.21;105643;1303;22224;-90
2022/10/17 10:23:51;;;;;;;11.60;8.30;;;;;;;21.44;64.77;99126.80;105357;1323;22800;-92
2022/10/17 10:26:31;;;;;;;9.70;8.10;;;;;;;21.44;65.96;99119.75;105698;1316;22878;-87
2022/10/17 10:29:04;;;;;;;11.20;8.80;;;;;;;21.53;66.93;99118.09;105649;1323;22114;-84
2022/10/17 10:31:35;;;;;;;9.70;7.90;;;;;;;21.61;65.45;99113.96;106025;1314;22246;-84
2022/10/17 10:34:21;;;;;;;10.40;7.70;;;;;;;21.69;65.09;99112.73;105474;1323;22114;-86
2022/10/17 10:36:51;;;;;;;8.60;7.70;;;;;;;21.84;65.04;99113.58;105546;1323;22201;-88
2022/10/17 10:39:29;;;;;;;10.50;8.00;;;;;;;21.95;63.42;99112.60;105977;1295;22121;-91
2022/10/17 10:42:25;;;;;;;11.60;8.70;;;;;;;22.08;63.69;99111.51;105732;1317;22213;-91
2022/10/17 10:45:00;;;;;;;19.10;9.80;;;;;;;22.14;62.29;99110.61;105518;1324;22122;-90
2022/10/17 10:47:29;;;;;;;10.50;9.10;;;;;;;22.21;60.47;99111.71;105285;1323;22771;-89
2022/10/17 10:50:22;;;;;;;10.60;8.40;;;;;;;22.27;60.34;99112.03;105138;1321;22222;-90
2022/10/17 10:53:02;;;;;;;10.00;7.60;;;;;;;22.42;61.22;99111.86;105447;1324;22215;-91
2022/10/17 10:55:39;;;;;;;13.80;7.50;;;;;;;22.56;61.28;99107.52;105249;1324;22123;-91
2022/10/17 10:58:22;;;;;;;11.40;8.00;;;;;;;22.73;59.74;99108.73;105108;1323;22207;-90
2022/10/17 11:00:52;;;;;;;14.20;8.90;;;;;;;22.85;59.38;99110.23;105312;1324;22921;-91
2022/10/17 11:03:27;;;;;;;12.20;8.90;;;;;;;22.93;57.82;99108.48;105257;1323;22265;-90
2022/10/17 11:06:04;;;;;;;12.30;8.40;;;;;;;22.86;56.30;99110.88;105592;1309;22719;-91
2022/10/17 11:08:44;;;;;;;11.30;8.10;;;;;;;22.87;59.05;99107.92;105441;1324;22202;-90
2022/10/17 11:11:31;;;;;;;11.40;8.10;;;;;;;23.02;57.94;99104.02;105500;1317;22223;-92
2022/10/17 11:14:14;;;;;;;12.20;7.90;;;;;;;23.16;57.18;99100.88;105261;1324;22248;-90
2022/10/17 11:17:04;;;;;;;10.40;7.70;;;;;;;23.20;55.30;99102.09;105832;1315;22732;-92
2022/10/17 11:19:48;;;;;;;11.00;7.80;;;;;;;23.30;55.83;99095.88;105374;1324;22122;-91
2022/10/17 11:22:37;;;;;;;13.20;7.00;;;;;;;23.41;56.06;99098.98;105904;1316;22088;-91
2022/10/17 11:25:21;;;;;;;12.60;8.40;;;;;;;23.50;56.82;99097.50;105497;1321;22229;-92
2022/10/17 11:27:49;;;;;;;11.80;8.00;;;;;;;23.63;55.49;99102.03;105904;1307;22198;-92
2022/10/17 11:30:17;;;;;;;9.20;8.20;;;;;;;23.75;55.52;99100.95;105561;1324;22131;-92
2022/10/17 11:32:58;;;;;;;13.40;8.30;;;;;;;23.90;55.60;99100.36;105431;1323;22093;-92
2022/10/17 11:35:36;;;;;;;12.00;9.00;;;;;;;24.14;55.28;99101.38;105948;1316;22170;-94
2022/10/17 11:38:12;;;;;;;11.80;8.50;;;;;;;24.33;55.12;99097.83;105747;1302;22174;-90
2022/10/17 11:40:44;;;;;;;10.10;7.80;;;;;;;24.49;53.62;99097.81;105412;1323;22171;-91
2022/10/17 11:43:16;;;;;;;9.70;8.70;;;;;;;24.58;52.14;99096.64;105399;1323;22200;-91
2022/10/17 11:45:48;;;;;;;11.40;8.70;;;;;;;24.70;53.13;99094.28;105932;1303;22893;-93
2022/10/17 11:48:23;;;;;;;10.90;8.00;;;;;;;24.89;52.36;99093.30;105742;1317;22191;-93
2022/10/17 11:51:06;;;;;;;9.60;8.10;;;;;;;24.93;52.04;99092.44;105425;1324;22201;-93
2022/10/17 11:54:25;;;;;;;10.50;8.60;;;;;;;25.02;52.36;99090.56;105563;1323;22208;-92